sensor_id;sensor_type;location;lat;lon;timestamp;pressure;altitude;pressure_sealevel;temperature;humidity
12775;BME280;6451;42.630;23.382;2022-10-16T00:01:13;95066.13;;;9.42;100.00
12775;BME280;6451;42.630;23.382;2022-10-16T00:03:42;95064.25;;;9.34;100.00
12775;BME280;6451;42.630;23.382;2022-10-16T00:06:10;95033.03;;;9.11;100.00
12775;BME280;6451;42.630;23.382;2022-10-16T00:08:38;95076.34;;;9.19;100.00
12775;BME280;6451;42.630;23.382;2022-10-16T00:11:08;95039.91;;;8.91;100.00
12775;BME280;6451;42.630;23.382;2022-10-16T00:13:36;95045.31;;;8.91;100.00
12775;BME280;6451;42.630;23.382;2022-10-16T00:16:04;95047.38;;;8.85;100.00
12775;BME280;6451;42.630;23.382;2022-10-16T00:18:33;95033.53;;;8.78;100.00
12775;BME280;6451;42.630;23.382;2022-10-16T00:21:04;95067.75;;;9.00;100.00
12775;BME280;6451;42.630;23.382;2022-10-16T00:23:31;95053.13;;;8.93;100.00
12775;BME280;6451;42.630;23.382;2022-10-16T00:26:00;94992.75;;;8.49;100.00
12775;BME280;6451;42.630;23.382;2022-10-16T00:28:28;95038.28;;;8.81;100.00
12775;BME280;6451;42.630;23.382;2022-10-16T00:30:56;95080.03;;;9.06;100.00
12775;BME280;6451;42.630;23.382;2022-10-16T00:33:23;95085.59;;;9.10;100.00
12775;BME280;6451;42.630;23.382;2022-10-16T00:35:51;95084.00;;;9.17;100.00
12775;BME280;6451;42.630;23.382;2022-10-16T00:38:18;94999.59;;;8.55;100.00
12775;BME280;6451;42.630;23.382;2022-10-16T00:40:45;95061.38;;;8.96;100.00
12775;BME280;6451;42.630;23.382;2022-10-16T00:43:13;95073.66;;;9.02;100.00
12775;BME280;6451;42.630;23.382;2022-10-16T00:45:41;95049.09;;;8.81;100.00
12775;BME280;6451;42.630;23.382;2022-10-16T00:48:11;95006.13;;;8.54;100.00
12775;BME280;6451;42.630;23.382;2022-10-16T00:50:40;95087.19;;;8.94;100.00
12775;BME280;6451;42.630;23.382;2022-10-16T00:53:11;94900.84;;;7.74;100.00
12775;BME280;6451;42.630;23.382;2022-10-16T00:55:38;95077.78;;;8.91;100.00
12775;BME280;6451;42.630;23.382;2022-10-16T00:58:05;95053.38;;;8.56;100.00
12775;BME280;6451;42.630;23.382;2022-10-16T01:00:33;95054.97;;;8.66;100.00
12775;BME280;6451;42.630;23.382;2022-10-16T01:03:02;95062.16;;;8.62;100.00
12775;BME280;6451;42.630;23.382;2022-10-16T01:05:34;94992.44;;;7.93;100.00
12775;BME280;6451;42.630;23.382;2022-10-16T01:08:12;95068.78;;;8.39;100.00
12775;BME280;6451;42.630;23.382;2022-10-16T01:10:50;95093.59;;;8.41;100.00
12775;BME280;6451;42.630;23.382;2022-10-16T01:13:23;95036.25;;;8.21;100.00
12775;BME280;6451;42.630;23.382;2022-10-16T01:15:55;95093.63;;;8.58;100.00
12775;BME280;6451;42.630;23.382;2022-10-16T01:18:28;95101.13;;;8.52;100.00
12775;BME280;6451;42.630;23.382;2022-10-16T01:21:00;95070.13;;;8.27;100.00
12775;BME280;6451;42.630;23.382;2022-10-16T01:23:38;95102.03;;;8.39;100.00
12775;BME280;6451;42.630;23.382;2022-10-16T01:26:20;95083.56;;;8.41;100.00
12775;BME280;6451;42.630;23.382;2022-10-16T01:28:55;95048.50;;;8.27;100.00
12775;BME280;6451;42.630;23.382;2022-10-16T01:31:26;95085.22;;;8.59;100.00
12775;BME280;6451;42.630;23.382;2022-10-16T01:33:59;95026.41;;;8.25;100.00
12775;BME280;6451;42.630;23.382;2022-10-16T01:36:32;95077.56;;;8.53;100.00
12775;BME280;6451;42.630;23.382;2022-10-16T01:39:02;95040.22;;;8.15;100.00
12775;BME280;6451;42.630;23.382;2022-10-16T01:41:38;95075.88;;;8.34;100.00
12775;BME280;6451;42.630;23.382;2022-10-16T01:44:10;94955.66;;;7.35;100.00
12775;BME280;6451;42.630;23.382;2022-10-16T01:46:41;95087.00;;;8.24;100.00
12775;BME280;6451;42.630;23.382;2022-10-16T01:49:10;95048.06;;;7.94;100.00
12775;BME280;6451;42.630;23.382;2022-10-16T01:51:38;95064.97;;;8.00;100.00
12775;BME280;6451;42.630;23.382;2022-10-16T01:54:08;95067.69;;;8.08;100.00
12775;BME280;6451;42.630;23.382;2022-10-16T01:56:35;95086.53;;;8.31;100.00
12775;BME280;6451;42.630;23.382;2022-10-16T01:59:06;95087.78;;;8.25;100.00
12775;BME280;6451;42.630;23.382;2022-10-16T02:01:36;95031.66;;;7.82;100.00
12775;BME280;6451;42.630;23.382;2022-10-16T02:04:11;95085.44;;;8.32;100.00
12775;BME280;6451;42.630;23.382;2022-10-16T02:06:40;95086.59;;;8.40;100.00
12775;BME280;6451;42.630;23.382;2022-10-16T02:09:08;95093.28;;;8.42;100.00
12775;BME280;6451;42.630;23.382;2022-10-16T02:11:35;95070.44;;;8.26;100.00
12775;BME280;6451;42.630;23.382;2022-10-16T02:14:04;95089.72;;;8.33;100.00
12775;BME280;6451;42.630;23.382;2022-10-16T02:16:38;95094.22;;;8.38;100.00
12775;BME280;6451;42.630;23.382;2022-10-16T02:19:06;95084.94;;;8.21;100.00
12775;BME280;6451;42.630;23.382;2022-10-16T02:21:39;95088.59;;;7.94;100.00
12775;BME280;6451;42.630;23.382;2022-10-16T02:24:13;95113.28;;;8.01;100.00
12775;BME280;6451;42.630;23.382;2022-10-16T02:26:49;95055.16;;;7.50;100.00
12775;BME280;6451;42.630;23.382;2022-10-16T02:29:21;95085.19;;;7.80;100.00
12775;BME280;6451;42.630;23.382;2022-10-16T02:31:54;95124.81;;;7.85;100.00
12775;BME280;6451;42.630;23.382;2022-10-16T02:34:24;95122.38;;;7.74;100.00
12775;BME280;6451;42.630;23.382;2022-10-16T02:36:52;95116.47;;;7.72;100.00
12775;BME280;6451;42.630;23.382;2022-10-16T02:39:21;95125.63;;;7.63;100.00
12775;BME280;6451;42.630;23.382;2022-10-16T02:41:48;95102.59;;;7.43;100.00
12775;BME280;6451;42.630;23.382;2022-10-16T02:44:15;95118.38;;;7.49;100.00
12775;BME280;6451;42.630;23.382;2022-10-16T02:46:41;95083.41;;;7.22;100.00
12775;BME280;6451;42.630;23.382;2022-10-16T02:49:10;95124.72;;;7.45;100.00
12775;BME280;6451;42.630;23.382;2022-10-16T02:51:37;94994.69;;;6.62;100.00
12775;BME280;6451;42.630;23.382;2022-10-16T02:54:04;95127.03;;;7.38;100.00
12775;BME280;6451;42.630;23.382;2022-10-16T02:56:30;95121.75;;;7.33;100.00
12775;BME280;6451;42.630;23.382;2022-10-16T02:58:57;95038.75;;;6.57;100.00
12775;BME280;6451;42.630;23.382;2022-10-16T03:01:24;95144.97;;;7.20;100.00
12775;BME280;6451;42.630;23.382;2022-10-16T03:03:51;95126.94;;;7.07;100.00
12775;BME280;6451;42.630;23.382;2022-10-16T03:06:19;95077.97;;;6.63;100.00
12775;BME280;6451;42.630;23.382;2022-10-16T03:08:46;95135.16;;;7.02;100.00
12775;BME280;6451;42.630;23.382;2022-10-16T03:11:13;95121.19;;;6.86;100.00
12775;BME280;6451;42.630;23.382;2022-10-16T03:13:40;95147.75;;;6.92;100.00
12775;BME280;6451;42.630;23.382;2022-10-16T03:16:07;95150.47;;;6.92;100.00
12775;BME280;6451;42.630;23.382;2022-10-16T03:18:34;95156.75;;;6.88;100.00
12775;BME280;6451;42.630;23.382;2022-10-16T03:21:02;95116.94;;;6.57;100.00
12775;BME280;6451;42.630;23.382;2022-10-16T03:23:30;95168.94;;;6.85;100.00
12775;BME280;6451;42.630;23.382;2022-10-16T03:25:57;95159.84;;;6.81;100.00
12775;BME280;6451;42.630;23.382;2022-10-16T03:28:24;95086.53;;;6.29;100.00
12775;BME280;6451;42.630;23.382;2022-10-16T03:30:52;95149.06;;;6.81;100.00
12775;BME280;6451;42.630;23.382;2022-10-16T03:33:19;95170.63;;;6.81;100.00
12775;BME280;6451;42.630;23.382;2022-10-16T03:35:51;95120.25;;;6.54;100.00
12775;BME280;6451;42.630;23.382;2022-10-16T03:38:18;95169.91;;;7.03;100.00
12775;BME280;6451;42.630;23.382;2022-10-16T03:40:46;95161.72;;;7.08;100.00
12775;BME280;6451;42.630;23.382;2022-10-16T03:43:13;95163.63;;;7.08;100.00
12775;BME280;6451;42.630;23.382;2022-10-16T03:45:40;95165.72;;;6.97;100.00
12775;BME280;6451;42.630;23.382;2022-10-16T03:48:07;95134.91;;;6.76;100.00
12775;BME280;6451;42.630;23.382;2022-10-16T03:50:35;95158.94;;;7.00;100.00
12775;BME280;6451;42.630;23.382;2022-10-16T03:53:02;95162.13;;;7.02;100.00
12775;BME280;6451;42.630;23.382;2022-10-16T03:55:29;95101.75;;;6.61;100.00
12775;BME280;6451;42.630;23.382;2022-10-16T03:57:57;95155.25;;;6.95;100.00
12775;BME280;6451;42.630;23.382;2022-10-16T04:00:24;95157.34;;;6.99;100.00
12775;BME280;6451;42.630;23.382;2022-10-16T04:02:51;95138.19;;;6.86;100.00
12775;BME280;6451;42.630;23.382;2022-10-16T04:05:19;95144.38;;;6.87;100.00
12775;BME280;6451;42.630;23.382;2022-10-16T04:07:46;95150.63;;;6.96;100.00
12775;BME280;6451;42.630;23.382;2022-10-16T04:10:13;95142.78;;;6.86;100.00
12775;BME280;6451;42.630;23.382;2022-10-16T04:12:39;95151.75;;;6.95;100.00
12775;BME280;6451;42.630;23.382;2022-10-16T04:15:09;95140.78;;;6.78;100.00
12775;BME280;6451;42.630;23.382;2022-10-16T04:17:36;95159.84;;;6.95;100.00
12775;BME280;6451;42.630;23.382;2022-10-16T04:20:04;95149.75;;;6.87;100.00
12775;BME280;6451;42.630;23.382;2022-10-16T04:22:31;95157.25;;;6.90;100.00
12775;BME280;6451;42.630;23.382;2022-10-16T04:24:59;95154.53;;;6.90;100.00
12775;BME280;6451;42.630;23.382;2022-10-16T04:27:32;95133.69;;;6.82;100.00
12775;BME280;6451;42.630;23.382;2022-10-16T04:29:59;95162.03;;;6.93;100.00
12775;BME280;6451;42.630;23.382;2022-10-16T04:32:27;95148.88;;;6.91;100.00
12775;BME280;6451;42.630;23.382;2022-10-16T04:34:54;95155.78;;;6.84;100.00
12775;BME280;6451;42.630;23.382;2022-10-16T04:37:23;95154.97;;;6.83;100.00
12775;BME280;6451;42.630;23.382;2022-10-16T04:39:50;94917.00;;;5.09;100.00
12775;BME280;6451;42.630;23.382;2022-10-16T04:42:17;95149.28;;;6.57;100.00
12775;BME280;6451;42.630;23.382;2022-10-16T04:44:44;95177.66;;;6.68;100.00
12775;BME280;6451;42.630;23.382;2022-10-16T04:47:11;95178.56;;;6.78;100.00
12775;BME280;6451;42.630;23.382;2022-10-16T04:49:39;95185.66;;;6.60;100.00
12775;BME280;6451;42.630;23.382;2022-10-16T04:52:06;95139.81;;;6.46;100.00
12775;BME280;6451;42.630;23.382;2022-10-16T04:54:35;95166.47;;;6.61;100.00
12775;BME280;6451;42.630;23.382;2022-10-16T04:57:02;95184.97;;;6.68;100.00
12775;BME280;6451;42.630;23.382;2022-10-16T04:59:31;95195.44;;;6.69;100.00
12775;BME280;6451;42.630;23.382;2022-10-16T05:01:58;95194.25;;;6.76;100.00
12775;BME280;6451;42.630;23.382;2022-10-16T05:04:25;95160.56;;;6.59;100.00
12775;BME280;6451;42.630;23.382;2022-10-16T05:06:53;95145.22;;;6.60;100.00
12775;BME280;6451;42.630;23.382;2022-10-16T05:09:20;95137.22;;;6.68;100.00
12775;BME280;6451;42.630;23.382;2022-10-16T05:11:47;95138.97;;;6.87;100.00
12775;BME280;6451;42.630;23.382;2022-10-16T05:14:14;95195.53;;;7.28;100.00
12775;BME280;6451;42.630;23.382;2022-10-16T05:16:40;95140.47;;;6.93;100.00
12775;BME280;6451;42.630;23.382;2022-10-16T05:19:07;95159.75;;;7.00;100.00
12775;BME280;6451;42.630;23.382;2022-10-16T05:21:34;95194.59;;;7.10;100.00
12775;BME280;6451;42.630;23.382;2022-10-16T05:24:03;95175.22;;;7.08;100.00
12775;BME280;6451;42.630;23.382;2022-10-16T05:26:30;95210.94;;;7.28;100.00
12775;BME280;6451;42.630;23.382;2022-10-16T05:28:56;95214.44;;;7.28;100.00
12775;BME280;6451;42.630;23.382;2022-10-16T05:31:23;95207.53;;;7.36;100.00
12775;BME280;6451;42.630;23.382;2022-10-16T05:33:50;95205.78;;;7.53;100.00
12775;BME280;6451;42.630;23.382;2022-10-16T05:36:17;95207.06;;;7.56;100.00
12775;BME280;6451;42.630;23.382;2022-10-16T05:38:45;95213.47;;;7.60;100.00
12775;BME280;6451;42.630;23.382;2022-10-16T05:41:13;95205.13;;;7.70;100.00
12775;BME280;6451;42.630;23.382;2022-10-16T05:43:40;95203.59;;;7.78;100.00
12775;BME280;6451;42.630;23.382;2022-10-16T05:46:07;95198.22;;;7.64;100.00
12775;BME280;6451;42.630;23.382;2022-10-16T05:48:35;95204.94;;;7.89;100.00
12775;BME280;6451;42.630;23.382;2022-10-16T05:51:04;95211.44;;;7.66;100.00
12775;BME280;6451;42.630;23.382;2022-10-16T05:53:34;95223.03;;;7.66;100.00
12775;BME280;6451;42.630;23.382;2022-10-16T05:56:02;95223.72;;;7.72;100.00
12775;BME280;6451;42.630;23.382;2022-10-16T05:58:32;95225.31;;;7.73;100.00
12775;BME280;6451;42.630;23.382;2022-10-16T06:01:03;95215.19;;;7.78;100.00
12775;BME280;6451;42.630;23.382;2022-10-16T06:03:30;95217.72;;;7.75;100.00
12775;BME280;6451;42.630;23.382;2022-10-16T06:05:57;95229.44;;;7.93;100.00
12775;BME280;6451;42.630;23.382;2022-10-16T06:08:24;95232.88;;;8.07;100.00
12775;BME280;6451;42.630;23.382;2022-10-16T06:11:01;95236.31;;;8.21;100.00
12775;BME280;6451;42.630;23.382;2022-10-16T06:13:28;95233.09;;;8.19;100.00
12775;BME280;6451;42.630;23.382;2022-10-16T06:15:58;95211.44;;;8.11;100.00
12775;BME280;6451;42.630;23.382;2022-10-16T06:18:26;95231.88;;;8.25;100.00
12775;BME280;6451;42.630;23.382;2022-10-16T06:20:53;95237.25;;;8.39;100.00
12775;BME280;6451;42.630;23.382;2022-10-16T06:23:20;95243.06;;;8.55;100.00
12775;BME280;6451;42.630;23.382;2022-10-16T06:25:47;95240.34;;;8.55;100.00
12775;BME280;6451;42.630;23.382;2022-10-16T06:28:14;95251.28;;;8.81;100.00
12775;BME280;6451;42.630;23.382;2022-10-16T06:30:41;95244.47;;;8.83;100.00
12775;BME280;6451;42.630;23.382;2022-10-16T06:33:10;95258.19;;;8.96;100.00
12775;BME280;6451;42.630;23.382;2022-10-16T06:35:38;95258.53;;;9.03;100.00
12775;BME280;6451;42.630;23.382;2022-10-16T06:38:05;95261.28;;;9.20;100.00
12775;BME280;6451;42.630;23.382;2022-10-16T06:40:31;95240.25;;;9.17;100.00
12775;BME280;6451;42.630;23.382;2022-10-16T06:42:58;95258.53;;;9.60;100.00
12775;BME280;6451;42.630;23.382;2022-10-16T06:45:25;95273.44;;;9.40;100.00
12775;BME280;6451;42.630;23.382;2022-10-16T06:47:52;95276.34;;;9.43;100.00
12775;BME280;6451;42.630;23.382;2022-10-16T06:50:20;95270.28;;;9.55;100.00
12775;BME280;6451;42.630;23.382;2022-10-16T06:52:47;95269.03;;;9.70;100.00
12775;BME280;6451;42.630;23.382;2022-10-16T06:55:15;95267.44;;;9.86;100.00
12775;BME280;6451;42.630;23.382;2022-10-16T06:57:42;95274.50;;;10.05;100.00
12775;BME280;6451;42.630;23.382;2022-10-16T07:00:09;95274.16;;;10.15;100.00
12775;BME280;6451;42.630;23.382;2022-10-16T07:02:36;95281.69;;;10.35;100.00
12775;BME280;6451;42.630;23.382;2022-10-16T07:05:04;95256.59;;;10.38;100.00
12775;BME280;6451;42.630;23.382;2022-10-16T07:07:32;95284.31;;;10.70;100.00
12775;BME280;6451;42.630;23.382;2022-10-16T07:09:59;95250.78;;;10.66;100.00
12775;BME280;6451;42.630;23.382;2022-10-16T07:12:26;95278.16;;;10.99;100.00
12775;BME280;6451;42.630;23.382;2022-10-16T07:14:53;95264.63;;;10.90;100.00
12775;BME280;6451;42.630;23.382;2022-10-16T07:17:21;95284.25;;;10.87;100.00
12775;BME280;6451;42.630;23.382;2022-10-16T07:19:47;95286.41;;;11.11;100.00
12775;BME280;6451;42.630;23.382;2022-10-16T07:22:15;95289.19;;;10.94;100.00
12775;BME280;6451;42.630;23.382;2022-10-16T07:24:44;95276.66;;;11.10;100.00
12775;BME280;6451;42.630;23.382;2022-10-16T07:27:11;95228.72;;;10.76;100.00
12775;BME280;6451;42.630;23.382;2022-10-16T07:29:38;95272.47;;;11.21;100.00
12775;BME280;6451;42.630;23.382;2022-10-16T07:32:05;95290.72;;;11.41;100.00
12775;BME280;6451;42.630;23.382;2022-10-16T07:34:32;95279.88;;;11.41;100.00
12775;BME280;6451;42.630;23.382;2022-10-16T07:36:59;95291.50;;;11.51;100.00
12775;BME280;6451;42.630;23.382;2022-10-16T07:39:25;95258.28;;;11.45;100.00
12775;BME280;6451;42.630;23.382;2022-10-16T07:41:54;95295.25;;;11.67;100.00
12775;BME280;6451;42.630;23.382;2022-10-16T07:44:21;95252.03;;;11.74;100.00
12775;BME280;6451;42.630;23.382;2022-10-16T07:46:48;95282.38;;;12.06;100.00
12775;BME280;6451;42.630;23.382;2022-10-16T07:49:15;95285.19;;;11.88;100.00
12775;BME280;6451;42.630;23.382;2022-10-16T07:51:42;95297.97;;;11.96;100.00
12775;BME280;6451;42.630;23.382;2022-10-16T07:54:09;95294.09;;;12.18;100.00
12775;BME280;6451;42.630;23.382;2022-10-16T07:56:36;95289.78;;;12.17;100.00
12775;BME280;6451;42.630;23.382;2022-10-16T07:59:04;95274.84;;;12.23;100.00
12775;BME280;6451;42.630;23.382;2022-10-16T08:01:31;95289.84;;;12.30;100.00
12775;BME280;6451;42.630;23.382;2022-10-16T08:03:59;95288.97;;;12.38;100.00
12775;BME280;6451;42.630;23.382;2022-10-16T08:06:26;95283.38;;;12.55;100.00
12775;BME280;6451;42.630;23.382;2022-10-16T08:08:53;95275.09;;;12.51;100.00
12775;BME280;6451;42.630;23.382;2022-10-16T08:11:20;95298.22;;;12.91;100.00
12775;BME280;6451;42.630;23.382;2022-10-16T08:13:47;95289.59;;;12.89;100.00
12775;BME280;6451;42.630;23.382;2022-10-16T08:16:15;95296.88;;;12.97;100.00
12775;BME280;6451;42.630;23.382;2022-10-16T08:18:42;95277.41;;;12.74;100.00
12775;BME280;6451;42.630;23.382;2022-10-16T08:21:13;95293.22;;;12.80;100.00
12775;BME280;6451;42.630;23.382;2022-10-16T08:23:40;95281.38;;;12.76;100.00
12775;BME280;6451;42.630;23.382;2022-10-16T08:26:09;95291.00;;;12.62;100.00
12775;BME280;6451;42.630;23.382;2022-10-16T08:28:36;95280.06;;;12.83;100.00
12775;BME280;6451;42.630;23.382;2022-10-16T08:31:08;95283.25;;;13.09;100.00
12775;BME280;6451;42.630;23.382;2022-10-16T08:33:37;95285.00;;;13.26;100.00
12775;BME280;6451;42.630;23.382;2022-10-16T08:36:06;95279.56;;;13.26;100.00
12775;BME280;6451;42.630;23.382;2022-10-16T08:38:33;95276.72;;;13.22;100.00
12775;BME280;6451;42.630;23.382;2022-10-16T08:41:21;95276.41;;;13.36;100.00
12775;BME280;6451;42.630;23.382;2022-10-16T08:44:09;95279.25;;;13.27;100.00
12775;BME280;6451;42.630;23.382;2022-10-16T08:46:45;95279.81;;;13.57;100.00
12775;BME280;6451;42.630;23.382;2022-10-16T08:49:19;95262.44;;;13.50;100.00
12775;BME280;6451;42.630;23.382;2022-10-16T08:51:46;95267.94;;;13.78;100.00
12775;BME280;6451;42.630;23.382;2022-10-16T08:54:22;95079.31;;;12.59;100.00
12775;BME280;6451;42.630;23.382;2022-10-16T08:56:55;95287.84;;;13.90;100.00
12775;BME280;6451;42.630;23.382;2022-10-16T08:59:23;95271.72;;;13.73;100.00
12775;BME280;6451;42.630;23.382;2022-10-16T09:01:56;95294.31;;;13.86;100.00
12775;BME280;6451;42.630;23.382;2022-10-16T09:04:46;95285.63;;;14.08;100.00
12775;BME280;6451;42.630;23.382;2022-10-16T09:07:19;95287.03;;;13.90;100.00
12775;BME280;6451;42.630;23.382;2022-10-16T09:09:57;95280.28;;;14.12;100.00
12775;BME280;6451;42.630;23.382;2022-10-16T09:12:33;95282.63;;;14.26;100.00
12775;BME280;6451;42.630;23.382;2022-10-16T09:15:10;95273.53;;;14.22;100.00
12775;BME280;6451;42.630;23.382;2022-10-16T09:17:47;95224.44;;;14.09;100.00
12775;BME280;6451;42.630;23.382;2022-10-16T09:20:37;95281.88;;;14.53;100.00
12775;BME280;6451;42.630;23.382;2022-10-16T09:23:15;95266.78;;;14.31;100.00
12775;BME280;6451;42.630;23.382;2022-10-16T09:25:46;95284.31;;;14.30;97.80
12775;BME280;6451;42.630;23.382;2022-10-16T09:28:14;95265.13;;;14.27;98.63
12775;BME280;6451;42.630;23.382;2022-10-16T09:30:42;95289.34;;;14.56;95.25
12775;BME280;6451;42.630;23.382;2022-10-16T09:33:11;95285.16;;;14.59;94.04
12775;BME280;6451;42.630;23.382;2022-10-16T09:35:42;95288.47;;;14.52;91.19
12775;BME280;6451;42.630;23.382;2022-10-16T09:38:21;95278.38;;;14.68;91.91
12775;BME280;6451;42.630;23.382;2022-10-16T09:40:49;95270.91;;;14.65;91.34
12775;BME280;6451;42.630;23.382;2022-10-16T09:43:22;95264.97;;;14.63;92.14
12775;BME280;6451;42.630;23.382;2022-10-16T09:45:54;95274.19;;;14.87;92.28
12775;BME280;6451;42.630;23.382;2022-10-16T09:48:22;95240.50;;;14.67;91.46
12775;BME280;6451;42.630;23.382;2022-10-16T09:50:58;95265.34;;;14.78;91.23
12775;BME280;6451;42.630;23.382;2022-10-16T09:53:36;95258.31;;;14.77;92.81
12775;BME280;6451;42.630;23.382;2022-10-16T09:56:04;95228.75;;;14.38;90.08
12775;BME280;6451;42.630;23.382;2022-10-16T09:58:32;95264.88;;;14.60;91.11
12775;BME280;6451;42.630;23.382;2022-10-16T10:01:00;95259.03;;;14.89;91.32
12775;BME280;6451;42.630;23.382;2022-10-16T10:03:37;95266.53;;;15.08;91.04
12775;BME280;6451;42.630;23.382;2022-10-16T10:06:17;95260.72;;;15.10;90.24
12775;BME280;6451;42.630;23.382;2022-10-16T10:08:56;95262.22;;;15.23;90.71
12775;BME280;6451;42.630;23.382;2022-10-16T10:11:48;95262.31;;;15.11;88.84
12775;BME280;6451;42.630;23.382;2022-10-16T10:14:28;95248.53;;;15.39;89.03
12775;BME280;6451;42.630;23.382;2022-10-16T10:17:19;95251.47;;;15.30;88.12
12775;BME280;6451;42.630;23.382;2022-10-16T10:19:52;95057.34;;;14.00;87.87
12775;BME280;6451;42.630;23.382;2022-10-16T10:22:27;95250.31;;;15.15;88.10
12775;BME280;6451;42.630;23.382;2022-10-16T10:25:14;95250.66;;;15.45;87.66
12775;BME280;6451;42.630;23.382;2022-10-16T10:27:56;95254.72;;;15.51;85.48
12775;BME280;6451;42.630;23.382;2022-10-16T10:30:29;95239.97;;;15.40;83.14
12775;BME280;6451;42.630;23.382;2022-10-16T10:33:12;95240.31;;;15.70;82.41
12775;BME280;6451;42.630;23.382;2022-10-16T10:35:47;95231.31;;;15.54;82.54
12775;BME280;6451;42.630;23.382;2022-10-16T10:38:27;95182.91;;;15.39;81.53
12775;BME280;6451;42.630;23.382;2022-10-16T10:41:09;95239.41;;;15.82;81.66
12775;BME280;6451;42.630;23.382;2022-10-16T10:43:52;95240.72;;;15.88;81.61
12775;BME280;6451;42.630;23.382;2022-10-16T10:46:31;95229.78;;;16.07;80.21
12775;BME280;6451;42.630;23.382;2022-10-16T10:49:13;95227.53;;;15.94;78.93
12775;BME280;6451;42.630;23.382;2022-10-16T10:51:49;95230.41;;;15.81;78.12
12775;BME280;6451;42.630;23.382;2022-10-16T10:54:27;95216.47;;;15.71;76.62
12775;BME280;6451;42.630;23.382;2022-10-16T10:57:02;95167.59;;;15.34;76.14
12775;BME280;6451;42.630;23.382;2022-10-16T10:59:57;95207.94;;;15.56;71.92
12775;BME280;6451;42.630;23.382;2022-10-16T11:02:34;95218.03;;;15.88;70.59
12775;BME280;6451;42.630;23.382;2022-10-16T11:05:30;95211.34;;;16.04;69.64
12775;BME280;6451;42.630;23.382;2022-10-16T11:08:01;95206.09;;;16.15;67.82
12775;BME280;6451;42.630;23.382;2022-10-16T11:10:38;95188.72;;;16.07;66.61
12775;BME280;6451;42.630;23.382;2022-10-16T11:13:17;95208.97;;;16.22;66.55
12775;BME280;6451;42.630;23.382;2022-10-16T11:15:47;95184.47;;;15.91;65.06
12775;BME280;6451;42.630;23.382;2022-10-16T11:18:18;95203.84;;;16.21;64.83
12775;BME280;6451;42.630;23.382;2022-10-16T11:20:50;95198.66;;;16.16;62.30
12775;BME280;6451;42.630;23.382;2022-10-16T11:23:25;95197.78;;;16.31;58.24
12775;BME280;6451;42.630;23.382;2022-10-16T11:25:56;95195.28;;;16.22;58.33
12775;BME280;6451;42.630;23.382;2022-10-16T11:28:27;95180.66;;;16.15;58.25
12775;BME280;6451;42.630;23.382;2022-10-16T11:31:02;95197.66;;;16.24;58.54
12775;BME280;6451;42.630;23.382;2022-10-16T11:33:36;95200.81;;;16.45;57.74
12775;BME280;6451;42.630;23.382;2022-10-16T11:36:11;95192.59;;;16.45;57.69
12775;BME280;6451;42.630;23.382;2022-10-16T11:38:46;95195.94;;;16.35;56.05
12775;BME280;6451;42.630;23.382;2022-10-16T11:41:21;95188.69;;;16.46;56.69
12775;BME280;6451;42.630;23.382;2022-10-16T11:43:56;95199.66;;;16.46;56.62
12775;BME280;6451;42.630;23.382;2022-10-16T11:46:27;95174.81;;;16.16;57.00
12775;BME280;6451;42.630;23.382;2022-10-16T11:49:02;95188.06;;;16.33;57.77
12775;BME280;6451;42.630;23.382;2022-10-16T11:51:33;95191.03;;;16.67;57.58
12775;BME280;6451;42.630;23.382;2022-10-16T11:54:10;95193.66;;;16.60;56.70
12775;BME280;6451;42.630;23.382;2022-10-16T11:56:45;95203.53;;;16.64;57.52
12775;BME280;6451;42.630;23.382;2022-10-16T11:59:19;95196.81;;;16.81;58.19
12775;BME280;6451;42.630;23.382;2022-10-16T12:01:52;95207.13;;;16.88;59.61
12775;BME280;6451;42.630;23.382;2022-10-16T14:38:18;95202.75;;;16.25;57.55
12775;BME280;6451;42.630;23.382;2022-10-16T14:40:48;95249.28;;;16.41;58.42
12775;BME280;6451;42.630;23.382;2022-10-16T14:43:20;95231.38;;;16.28;57.53
12775;BME280;6451;42.630;23.382;2022-10-16T14:45:52;95242.09;;;16.17;56.62
12775;BME280;6451;42.630;23.382;2022-10-16T14:48:19;95228.22;;;16.26;56.64
12775;BME280;6451;42.630;23.382;2022-10-16T14:50:47;95245.56;;;16.14;56.63
12775;BME280;6451;42.630;23.382;2022-10-16T14:53:15;95258.47;;;16.13;57.59
12775;BME280;6451;42.630;23.382;2022-10-16T14:55:42;95213.53;;;15.79;58.52
12775;BME280;6451;42.630;23.382;2022-10-16T14:58:13;95262.47;;;16.00;59.19
12775;BME280;6451;42.630;23.382;2022-10-16T15:00:41;95268.53;;;15.90;59.85
12775;BME280;6451;42.630;23.382;2022-10-16T15:03:08;95277.09;;;15.89;60.50
12775;BME280;6451;42.630;23.382;2022-10-16T15:05:35;95272.78;;;15.72;61.19
12775;BME280;6451;42.630;23.382;2022-10-16T15:08:02;95268.75;;;15.66;61.40
12775;BME280;6451;42.630;23.382;2022-10-16T15:10:37;95244.84;;;15.31;61.76
12775;BME280;6451;42.630;23.382;2022-10-16T15:13:04;95273.44;;;15.49;61.83
12775;BME280;6451;42.630;23.382;2022-10-16T15:15:36;95274.13;;;15.46;62.23
12775;BME280;6451;42.630;23.382;2022-10-16T15:18:04;95254.13;;;15.26;62.64
12775;BME280;6451;42.630;23.382;2022-10-16T15:20:33;95249.53;;;15.15;63.18
12775;BME280;6451;42.630;23.382;2022-10-16T15:23:01;95277.47;;;15.24;63.98
12775;BME280;6451;42.630;23.382;2022-10-16T15:25:34;95283.91;;;15.16;64.97
12775;BME280;6451;42.630;23.382;2022-10-16T15:28:02;95264.78;;;15.00;65.21
12775;BME280;6451;42.630;23.382;2022-10-16T15:30:30;95292.47;;;14.98;66.03
12775;BME280;6451;42.630;23.382;2022-10-16T15:32:57;95292.28;;;14.91;66.62
12775;BME280;6451;42.630;23.382;2022-10-16T15:35:24;95293.94;;;14.80;67.61
12775;BME280;6451;42.630;23.382;2022-10-16T15:37:51;95289.50;;;14.76;67.82
12775;BME280;6451;42.630;23.382;2022-10-16T15:40:19;95299.53;;;14.71;68.70
12775;BME280;6451;42.630;23.382;2022-10-16T15:42:48;95306.06;;;14.67;69.11
12775;BME280;6451;42.630;23.382;2022-10-16T15:45:17;95305.50;;;14.61;69.54
12775;BME280;6451;42.630;23.382;2022-10-16T15:47:45;95285.59;;;14.61;69.28